Ali Cat — MZCL8 — position and weather

sailwx.info

Track history (hours):
 
Tides and Currents Weather Stations Pressure Air Temp Water Temp Dewpoint Dewpoint Depression Visibility Wind Speed Wind Dir Waves Ship Positions

Ali Cat

Operator: MRCC Clyde

Last reported at 2016-Dec-23 13:16 UTC. Time now 2017-Apr-27 18:52 UTC.
Position N 55°58' W 004°49'.
Warning: this ship's position is months out of date.

Length 19 m.

Type: Passenger vessel. MMSI: 235056506.

Date/timePositionNaut miles runAvg speedWind from/ knotsBaromVisibWave heightAir tempDewpointWater temp
2016-Dec-23 13:16N 55°58' W 004°49'0 0.0
2016-Dec-23 12:31N 55°58' W 004°49'0 0.0
2016-Dec-23 07:31N 55°58' W 004°49'0 0.0
2016-Dec-23 06:05N 55°58' W 004°49'0 0.0
2016-Dec-22 22:06N 55°58' W 004°49'4 6.5
2016-Dec-22 21:33N 55°57' W 004°55'1 0.6
2016-Dec-22 20:25N 55°57' W 004°54'1 1.4
2016-Dec-22 19:33N 55°57' W 004°52'1 0.3
2016-Dec-22 16:29N 55°57' W 004°53'2 2.6
2016-Dec-22 15:32N 55°58' W 004°49'0 0.0
2016-Dec-22 14:29N 55°58' W 004°49'1 0.1
2016-Dec-21 14:31N 55°58' W 004°51'1 0.9
2016-Dec-21 13:33N 55°58' W 004°53'1 0.5
2016-Dec-21 12:31N 55°57' W 004°52'0 0.2
2016-Dec-21 11:31N 55°57' W 004°52'0 0.3
2016-Dec-21 10:29N 55°57' W 004°52'1 0.6
2016-Dec-21 09:31N 55°57' W 004°52'2 1.6
2016-Dec-21 08:33N 55°58' W 004°49'0 0.0
2016-Dec-21 06:17N 55°58' W 004°49'0 0.0
2016-Dec-20 19:26N 55°58' W 004°49'0 0.0
2016-Dec-20 18:32N 55°58' W 004°49'0 0.1
2016-Dec-20 17:18N 55°58' W 004°49'0 0.0
2016-Dec-20 15:33N 55°58' W 004°49'0 0.1
2016-Dec-20 14:29N 55°58' W 004°49'0 0.0
2016-Dec-20 13:31N 55°58' W 004°49'3 1.4
2016-Dec-20 11:25N 55°57' W 004°54'1 1.4
2016-Dec-20 10:33N 55°57' W 004°52'1 1.1
2016-Dec-20 09:26N 55°57' W 004°54'3 0.3
2016-Dec-19 22:08N 55°58' W 004°49'2 3.1
2016-Dec-19 21:24N 55°58' W 004°53'1 0.7
2016-Dec-19 20:32N 55°57' W 004°52'0 0.4
2016-Dec-19 19:30N 55°57' W 004°53'0 0.2
2016-Dec-19 16:32N 55°57' W 004°52'2 1.5
2016-Dec-19 15:25N 55°58' W 004°49'2 2.3
2016-Dec-19 14:33N 55°57' W 004°52'0 0.1
2016-Dec-19 13:33N 55°57' W 004°52'0 0.2
2016-Dec-19 12:30N 55°57' W 004°53'0 0.4
2016-Dec-19 11:32N 55°57' W 004°52'0 0.3
2016-Dec-19 10:33N 55°58' W 004°51'1 1.4
2016-Dec-19 09:33N 55°57' W 004°54'3 0.9
2016-Dec-19 06:27N 55°58' W 004°49'0 0.0
2016-Dec-18 18:14N 55°58' W 004°49'2 2.2
2016-Dec-18 17:32N 55°58' W 004°52'0 0.3
2016-Dec-18 16:33N 55°58' W 004°52'0 0.2
2016-Dec-18 15:31N 55°58' W 004°52'0 0.3
2016-Dec-18 14:31N 55°58' W 004°51'0 0.2
2016-Dec-18 13:33N 55°58' W 004°52'2 1.5
2016-Dec-18 12:29N 55°58' W 004°49'0 0.0
2016-Dec-18 11:29N 55°58' W 004°49'0 0.0
2016-Dec-18 10:29N 55°58' W 004°49'0 0.0
2016-Dec-18 09:32N 55°58' W 004°49'0 0.0
2016-Dec-18 08:32N 55°58' W 004°49'4 0.3
2016-Dec-17 21:33N 55°57' W 004°55'2 1.5
2016-Dec-17 20:30N 55°57' W 004°52'1 0.6
2016-Dec-17 19:28N 55°57' W 004°53'0 0.2
2016-Dec-17 18:29N 55°57' W 004°54'1 0.8
2016-Dec-17 17:31N 55°57' W 004°52'0 0.1
2016-Dec-17 16:32N 55°57' W 004°52'2 1.6
2016-Dec-17 15:16N 55°58' W 004°49'0 0.1
2016-Dec-17 14:23N 55°58' W 004°49'0 0.3
2016-Dec-17 13:14N 55°58' W 004°49'2 2.7
2016-Dec-17 12:31N 55°57' W 004°52'1 0.6
2016-Dec-17 11:28N 55°57' W 004°53'1 0.9
2016-Dec-17 10:33N 55°57' W 004°52'0 0.2
2016-Dec-17 09:33N 55°58' W 004°51'0 0.3
2016-Dec-17 08:32N 55°57' W 004°52'0 0.2
2016-Dec-17 07:32N 55°57' W 004°52'2 1.7
2016-Dec-17 06:29N 55°58' W 004°49'4 0.4
2016-Dec-16 21:33N 55°57' W 004°55'2 1.7
2016-Dec-16 20:32N 55°57' W 004°52'0 0.2
2016-Dec-16 19:33N 55°57' W 004°52'0 0.2
2016-Dec-16 18:33N 55°57' W 004°52'0 0.1
2016-Dec-16 17:31N 55°57' W 004°52'0 0.4
2016-Dec-16 16:33N 55°57' W 004°52'2 1.5
2016-Dec-16 15:27N 55°58' W 004°49'2 2.2
2016-Dec-16 14:33N 55°58' W 004°52'0 0.2
2016-Dec-16 13:33N 55°58' W 004°52'1 0.5
2016-Dec-16 12:33N 55°57' W 004°52'0 0.1
2016-Dec-16 11:33N 55°57' W 004°52'0 0.2
2016-Dec-16 10:32N 55°57' W 004°52'0 0.0
2016-Dec-16 09:32N 55°57' W 004°52'0 0.2
2016-Dec-16 08:33N 55°57' W 004°52'0 0.4
2016-Dec-16 07:25N 55°57' W 004°52'2 2.3
2016-Dec-16 06:31N 55°58' W 004°49'4 0.4
2016-Dec-15 21:33N 55°57' W 004°55'2 1.9
2016-Dec-15 20:32N 55°57' W 004°52'0 0.2
2016-Dec-15 19:31N 55°57' W 004°52'2 0.1
2016-Dec-14 21:32N 55°57' W 004°55'2 1.7
2016-Dec-14 20:32N 55°57' W 004°52'0 0.1
2016-Dec-14 19:32N 55°57' W 004°52'0 0.2
2016-Dec-14 18:33N 55°57' W 004°52'1 0.7
2016-Dec-14 17:29N 55°57' W 004°53'0 0.4
2016-Dec-14 16:31N 55°57' W 004°52'2 2.1
2016-Dec-14 15:33N 55°58' W 004°49'2 1.8
2016-Dec-14 14:33N 55°58' W 004°52'0 0.3
2016-Dec-14 13:33N 55°58' W 004°52'1 0.7
2016-Dec-14 12:30N 55°57' W 004°53'1 0.7
2016-Dec-14 11:28N 55°57' W 004°54'1 1.6
2016-Dec-14 10:33N 55°58' W 004°51'1 1.2
2016-Dec-14 09:27N 55°57' W 004°53'0 0.1
2016-Dec-14 08:28N 55°57' W 004°54'2 2.3
2016-Dec-14 07:33N 55°58' W 004°50'2 2.2
2016-Dec-14 06:32N 55°58' W 004°46'2 0.2
2016-Dec-13 22:27N 55°57' W 004°44'6 7.2
2016-Dec-13 21:34N 55°57' W 004°55'2 2.0
2016-Dec-13 20:32N 55°57' W 004°52'1 1.1
2016-Dec-13 19:27N 55°57' W 004°54'1 1.0
2016-Dec-13 18:31N 55°57' W 004°52'0 0.3
2016-Dec-13 17:29N 55°57' W 004°53'1 0.7
2016-Dec-13 16:34N 55°57' W 004°51'1 1.3
2016-Dec-13 15:25N 55°58' W 004°49'2 2.5
2016-Dec-13 14:33N 55°57' W 004°53'0 0.1
2016-Dec-13 13:33N 55°58' W 004°53'  
Track history (hours):
 
Tides and Currents Weather Stations Pressure Air Temp Water Temp Dewpoint Dewpoint Depression Visibility Wind Speed Wind Dir Waves Ship Positions

Ali Cat

Operator: MRCC Clyde

Last reported at 2016-Dec-23 13:16 UTC. Time now 2017-Apr-27 18:52 UTC.
Position N 55°58' W 004°49'.
Warning: this ship's position is months out of date.

Length 19 m.

Type: Passenger vessel. MMSI: 235056506.

Date/timePositionNaut miles runAvg speedWind from/ knotsBaromVisibWave heightAir tempDewpointWater temp
2016-Dec-23 13:16N 55°58' W 004°49'0 0.0
2016-Dec-23 12:31N 55°58' W 004°49'0 0.0
2016-Dec-23 07:31N 55°58' W 004°49'0 0.0
2016-Dec-23 06:05N 55°58' W 004°49'0 0.0
2016-Dec-22 22:06N 55°58' W 004°49'4 6.5
2016-Dec-22 21:33N 55°57' W 004°55'1 0.6
2016-Dec-22 20:25N 55°57' W 004°54'1 1.4
2016-Dec-22 19:33N 55°57' W 004°52'1 0.3
2016-Dec-22 16:29N 55°57' W 004°53'2 2.6
2016-Dec-22 15:32N 55°58' W 004°49'0 0.0
2016-Dec-22 14:29N 55°58' W 004°49'1 0.1
2016-Dec-21 14:31N 55°58' W 004°51'1 0.9
2016-Dec-21 13:33N 55°58' W 004°53'1 0.5
2016-Dec-21 12:31N 55°57' W 004°52'0 0.2
2016-Dec-21 11:31N 55°57' W 004°52'0 0.3
2016-Dec-21 10:29N 55°57' W 004°52'1 0.6
2016-Dec-21 09:31N 55°57' W 004°52'2 1.6
2016-Dec-21 08:33N 55°58' W 004°49'0 0.0
2016-Dec-21 06:17N 55°58' W 004°49'0 0.0
2016-Dec-20 19:26N 55°58' W 004°49'0 0.0
2016-Dec-20 18:32N 55°58' W 004°49'0 0.1
2016-Dec-20 17:18N 55°58' W 004°49'0 0.0
2016-Dec-20 15:33N 55°58' W 004°49'0 0.1
2016-Dec-20 14:29N 55°58' W 004°49'0 0.0
2016-Dec-20 13:31N 55°58' W 004°49'3 1.4
2016-Dec-20 11:25N 55°57' W 004°54'1 1.4
2016-Dec-20 10:33N 55°57' W 004°52'1 1.1
2016-Dec-20 09:26N 55°57' W 004°54'3 0.3
2016-Dec-19 22:08N 55°58' W 004°49'2 3.1
2016-Dec-19 21:24N 55°58' W 004°53'1 0.7
2016-Dec-19 20:32N 55°57' W 004°52'0 0.4
2016-Dec-19 19:30N 55°57' W 004°53'0 0.2
2016-Dec-19 16:32N 55°57' W 004°52'2 1.5
2016-Dec-19 15:25N 55°58' W 004°49'2 2.3
2016-Dec-19 14:33N 55°57' W 004°52'0 0.1
2016-Dec-19 13:33N 55°57' W 004°52'0 0.2
2016-Dec-19 12:30N 55°57' W 004°53'0 0.4
2016-Dec-19 11:32N 55°57' W 004°52'0 0.3
2016-Dec-19 10:33N 55°58' W 004°51'1 1.4
2016-Dec-19 09:33N 55°57' W 004°54'3 0.9
2016-Dec-19 06:27N 55°58' W 004°49'0 0.0
2016-Dec-18 18:14N 55°58' W 004°49'2 2.2
2016-Dec-18 17:32N 55°58' W 004°52'0 0.3
2016-Dec-18 16:33N 55°58' W 004°52'0 0.2
2016-Dec-18 15:31N 55°58' W 004°52'0 0.3
2016-Dec-18 14:31N 55°58' W 004°51'0 0.2
2016-Dec-18 13:33N 55°58' W 004°52'2 1.5
2016-Dec-18 12:29N 55°58' W 004°49'0 0.0
2016-Dec-18 11:29N 55°58' W 004°49'0 0.0
2016-Dec-18 10:29N 55°58' W 004°49'0 0.0
2016-Dec-18 09:32N 55°58' W 004°49'0 0.0
2016-Dec-18 08:32N 55°58' W 004°49'4 0.3
2016-Dec-17 21:33N 55°57' W 004°55'2 1.5
2016-Dec-17 20:30N 55°57' W 004°52'1 0.6
2016-Dec-17 19:28N 55°57' W 004°53'0 0.2
2016-Dec-17 18:29N 55°57' W 004°54'1 0.8
2016-Dec-17 17:31N 55°57' W 004°52'0 0.1
2016-Dec-17 16:32N 55°57' W 004°52'2 1.6
2016-Dec-17 15:16N 55°58' W 004°49'0 0.1
2016-Dec-17 14:23N 55°58' W 004°49'0 0.3
2016-Dec-17 13:14N 55°58' W 004°49'2 2.7
2016-Dec-17 12:31N 55°57' W 004°52'1 0.6
2016-Dec-17 11:28N 55°57' W 004°53'1 0.9
2016-Dec-17 10:33N 55°57' W 004°52'0 0.2
2016-Dec-17 09:33N 55°58' W 004°51'0 0.3
2016-Dec-17 08:32N 55°57' W 004°52'0 0.2
2016-Dec-17 07:32N 55°57' W 004°52'2 1.7
2016-Dec-17 06:29N 55°58' W 004°49'4 0.4
2016-Dec-16 21:33N 55°57' W 004°55'2 1.7
2016-Dec-16 20:32N 55°57' W 004°52'0 0.2
2016-Dec-16 19:33N 55°57' W 004°52'0 0.2
2016-Dec-16 18:33N 55°57' W 004°52'0 0.1
2016-Dec-16 17:31N 55°57' W 004°52'0 0.4
2016-Dec-16 16:33N 55°57' W 004°52'2 1.5
2016-Dec-16 15:27N 55°58' W 004°49'2 2.2
2016-Dec-16 14:33N 55°58' W 004°52'0 0.2
2016-Dec-16 13:33N 55°58' W 004°52'1 0.5
2016-Dec-16 12:33N 55°57' W 004°52'0 0.1
2016-Dec-16 11:33N 55°57' W 004°52'0 0.2
2016-Dec-16 10:32N 55°57' W 004°52'0 0.0
2016-Dec-16 09:32N 55°57' W 004°52'0 0.2
2016-Dec-16 08:33N 55°57' W 004°52'0 0.4
2016-Dec-16 07:25N 55°57' W 004°52'2 2.3
2016-Dec-16 06:31N 55°58' W 004°49'4 0.4
2016-Dec-15 21:33N 55°57' W 004°55'2 1.9
2016-Dec-15 20:32N 55°57' W 004°52'0 0.2
2016-Dec-15 19:31N 55°57' W 004°52'2 0.1
2016-Dec-14 21:32N 55°57' W 004°55'2 1.7
2016-Dec-14 20:32N 55°57' W 004°52'0 0.1
2016-Dec-14 19:32N 55°57' W 004°52'0 0.2
2016-Dec-14 18:33N 55°57' W 004°52'1 0.7
2016-Dec-14 17:29N 55°57' W 004°53'0 0.4
2016-Dec-14 16:31N 55°57' W 004°52'2 2.1
2016-Dec-14 15:33N 55°58' W 004°49'2 1.8
2016-Dec-14 14:33N 55°58' W 004°52'0 0.3
2016-Dec-14 13:33N 55°58' W 004°52'1 0.7
2016-Dec-14 12:30N 55°57' W 004°53'1 0.7
2016-Dec-14 11:28N 55°57' W 004°54'1 1.6
2016-Dec-14 10:33N 55°58' W 004°51'1 1.2
2016-Dec-14 09:27N 55°57' W 004°53'0 0.1
2016-Dec-14 08:28N 55°57' W 004°54'2 2.3
2016-Dec-14 07:33N 55°58' W 004°50'2 2.2
2016-Dec-14 06:32N 55°58' W 004°46'2 0.2
2016-Dec-13 22:27N 55°57' W 004°44'6 7.2
2016-Dec-13 21:34N 55°57' W 004°55'2 2.0
2016-Dec-13 20:32N 55°57' W 004°52'1 1.1
2016-Dec-13 19:27N 55°57' W 004°54'1 1.0
2016-Dec-13 18:31N 55°57' W 004°52'0 0.3
2016-Dec-13 17:29N 55°57' W 004°53'1 0.7
2016-Dec-13 16:34N 55°57' W 004°51'1 1.3
2016-Dec-13 15:25N 55°58' W 004°49'2 2.5
2016-Dec-13 14:33N 55°57' W 004°53'0 0.1
2016-Dec-13 13:33N 55°58' W 004°53'  

Dump ship's entire track history